This is the latest recevied weather packets stored in our database for station/object DJ3LE. If no packets are shown the sender has not sent any weather packets the latest 10 day(s).
| Time | Temp. | Humidity | Pressure | Rain* | Wind** | Luminosity | Snow |
|---|---|---|---|---|---|---|---|
| 1777768338 | 10° C | 90% | 1012.1 hPa | - | - | 0 W/m² | - |
| 1777764738 | 10.56° C | 88% | 1012.1 hPa | - | - | 0 W/m² | - |
| 1777763838 | 10.56° C | 88% | 1012.2 hPa | - | - | 0 W/m² | - |
| 1777745837 | 17.78° C | 71% | 1012.9 hPa | - | - | 95 W/m² | - |
| 1777744937 | 17.78° C | 67% | 1012.8 hPa | - | - | 47 W/m² | - |
| 1777733236 | 25.56° C | 33% | 1013.4 hPa | - | - | 251 W/m² | - |
| 1777728741 | 26.11° C | 32% | 1013.9 hPa | - | - | 585 W/m² | - |
| 1777720641 | 24.44° C | 39% | 1015.1 hPa | - | - | 564 W/m² | - |
| 1777717940 | 23.33° C | 41% | 1015.5 hPa | - | - | 404 W/m² | - |
| 1777712540 | 21.67° C | 47% | 1016.3 hPa | - | - | 132 W/m² | - |
| 1777700839 | 12.22° C | 75% | 1017.5 hPa | - | - | 163 W/m² | - |
| 1777689138 | 8.89° C | 80% | 1018.6 hPa | - | - | 0 W/m² | - |
| 1777678337 | 12.22° C | 71% | 1020.4 hPa | - | - | 0 W/m² | - |
| 1777669337 | 13.89° C | 69% | 1021.2 hPa | - | - | 0 W/m² | - |
| 1777666637 | 14.44° C | 65% | 1021.4 hPa | - | - | 0 W/m² | - |
| 1777660336 | 18.33° C | 52% | 1022 hPa | - | - | 16 W/m² | - |
| 1777654936 | 21.11° C | 46% | 1022.5 hPa | - | - | 139 W/m² | - |
| 1777640539 | 23.89° C | 37% | 1025.4 hPa | - | - | 738 W/m² | - |
| 1777628839 | 20° C | 45% | 1027.4 hPa | - | - | 294 W/m² | - |
| 1777620738 | 17.22° C | 53% | 1028.1 hPa | - | - | 455 W/m² | - |
| 1777617138 | 11.11° C | 85% | 1028.4 hPa | - | - | 230 W/m² | - |
| 1777605437 | 3.89° C | 88% | 1028 hPa | - | - | 0 W/m² | - |
| 1777600937 | 4.44° C | 86% | 1028.2 hPa | - | - | 0 W/m² | - |
| 1777599137 | 5° C | 84% | 1028.3 hPa | - | - | 0 W/m² | - |
| 1777598237 | 5° C | 85% | 1028.4 hPa | - | - | 0 W/m² | - |
* Rain since midnight (hover to see other rain measurements)
** Current wind speed in m/s (hover to see current wind gust speed)